Latest Coastal Weather Observations for Broome Port

IDW60701

Issued at 7:15 pm WST Saturday 25 October 2014 (issued every 10 minutes, with the page automatically refreshed every 10 minutes)

About coastal observations | Map of coastal stations | Coastal observations for WA | Marine services | Other Formats
Station Details ID: 003102 Name: BROOME NTC AWS Lat: -18.00 Lon: 122.22 Height: 0.0 m
Data from the previous 72 hours. | See also: Recent months for locations in Western Australia
Date/Time
WST
Temp

°C
Wind Pressure Rain
since 9am
mm
Weather Cloud Vis
km
Sea
Height
m
Swell
Dir
 
Speed
knots
Gust
knots
hPa Trend Height
m
Period
s
Dir
25/07:00pm 27.0 NW 15 18 1011.4 - - - - - - - - -
25/06:30pm 27.1 NNW 15 20 1011.2 - - - - - - - - -
25/06:00pm 27.2 NW 16 20 1011.1 - - - - - - - - -
25/05:30pm 27.4 NNW 16 20 1010.7 - - - - - - - - -
25/05:00pm 27.6 NNW 17 20 1010.4 - - - - - - - - -
25/04:30pm 27.5 NW 17 19 1010.5 - - - - - - - - -
25/04:00pm 27.6 NW 17 20 1010.2 - - - - - - - - -
25/03:30pm 27.5 NW 18 22 1010.3 - - - - - - - - -
25/03:00pm 27.6 NW 18 21 1010.3 - - - - - - - - -
25/02:30pm 27.7 NW 17 21 1010.7 - - - - - - - - -
25/02:00pm 27.6 NW 16 19 1011.2 - - - - - - - - -
25/01:30pm 27.9 NW 15 18 1011.3 - - - - - - - - -
25/01:00pm 27.9 NNW 15 20 1011.6 - - - - - - - - -
25/12:30pm 28.0 NNW 14 18 1012.0 - - - - - - - - -
25/12:00pm 27.8 NNW 14 18 1012.1 - - - - - - - - -
25/11:30am 27.6 NNW 13 17 1012.6 - - - - - - - - -
25/11:00am 27.9 N 11 14 1013.1 - - - - - - - - -
25/10:30am 27.8 NNW 11 15 1013.3 - - - - - - - - -
25/10:00am 27.9 NNW 8 11 1013.7 - - - - - - - - -
25/09:30am 27.9 NNW 7 9 1013.9 - - - - - - - - -
25/09:00am 27.8 NNW 7 10 1013.8 - - - - - - - - -
25/08:30am 27.6 N 8 10 1013.6 - - - - - - - - -
25/08:00am 27.0 NNW 9 11 1013.7 - - - - - - - - -
25/07:30am 27.1 NW 7 11 1013.7 - - - - - - - - -
25/07:00am 27.0 NW 9 11 1013.3 - - - - - - - - -
25/06:30am 26.9 WNW 10 12 1013.1 - - - - - - - - -
25/06:00am 26.8 WNW 8 11 1012.5 - - - - - - - - -
25/05:30am 26.8 W 12 15 1012.0 - - - - - - - - -
25/05:00am 26.8 W 11 16 1011.7 - - - - - - - - -
25/04:30am 26.8 W 11 14 1011.3 - - - - - - - - -
25/04:00am 26.9 WNW 9 12 1011.1 - - - - - - - - -
25/03:30am 26.9 WNW 10 12 1010.7 - - - - - - - - -
25/03:00am 26.8 WNW 9 12 1010.7 - - - - - - - - -
25/02:30am 27.0 WNW 12 15 1010.1 - - - - - - - - -
25/02:00am 27.0 W 6 8 1010.8 - - - - - - - - -
25/01:30am 26.9 W 3 5 1011.1 - - - - - - - - -
25/01:00am 27.0 SSW 6 8 1011.3 - - - - - - - - -
25/12:30am 27.1 SW 6 8 1011.9 - - - - - - - - -
25/12:00am 26.7 WNW 9 11 1011.5 - - - - - - - - -
 
Date/Time
WST
Temp

°C
Wind Pressure Rain
since 9am
mm
Weather Cloud Vis
km
Sea
Height
m
Swell
Dir
 
Speed
knots
Gust
knots
hPa Trend Height
m
Period
s
Dir
24/11:30pm 26.7 WNW 9 12 1011.5 - - - - - - - - -
24/11:00pm 26.7 NW 10 14 1011.5 - - - - - - - - -
24/10:30pm 26.8 NNW 12 16 1011.6 - - - - - - - - -
24/10:00pm 26.8 NNW 14 17 1011.6 - - - - - - - - -
24/09:30pm 26.9 NNW 16 20 1011.6 - - - - - - - - -
24/09:00pm 26.9 NNW 16 21 1011.3 - - - - - - - - -
24/08:30pm 26.9 NNW 16 21 1011.2 - - - - - - - - -
24/08:00pm 26.9 NNW 16 21 1011.0 - - - - - - - - -
24/07:30pm 27.0 NNW 17 22 1010.6 - - - - - - - - -
24/07:00pm 27.1 NNW 15 19 1010.5 - - - - - - - - -
24/06:30pm 27.3 NNW 19 22 1010.0 - - - - - - - - -
24/06:00pm 27.4 NNW 16 20 1009.9 - - - - - - - - -
24/05:30pm 27.6 NNW 20 22 1009.7 - - - - - - - - -
24/05:00pm 27.8 N 19 23 1009.4 - - - - - - - - -
24/04:30pm 27.9 N 20 23 1009.2 - - - - - - - - -
24/04:00pm 28.0 NNW 18 22 1009.2 - - - - - - - - -
24/03:30pm 27.9 N 20 24 1009.4 - - - - - - - - -
24/03:00pm 28.0 N 19 23 1009.7 - - - - - - - - -
24/02:30pm 28.0 N 19 23 1009.8 - - - - - - - - -
24/02:00pm 28.2 NNW 17 21 1010.0 - - - - - - - - -
24/01:30pm 28.3 NNW 16 20 1010.4 - - - - - - - - -
24/01:00pm 28.9 NNW 15 18 1010.7 - - - - - - - - -
24/12:30pm 29.3 NNW 13 16 1010.8 - - - - - - - - -
24/12:00pm 29.5 NNW 12 15 1011.1 - - - - - - - - -
24/11:30am 28.9 NNW 12 15 1011.2 - - - - - - - - -
24/11:00am 29.1 NNW 12 15 1011.4 - - - - - - - - -
24/10:30am 29.9 N 8 10 1011.8 - - - - - - - - -
24/10:00am 28.6 N 10 14 1012.1 - - - - - - - - -
24/09:30am 28.4 N 11 13 1012.0 - - - - - - - - -
24/09:00am 28.5 NE 2 5 1012.4 - - - - - - - - -
24/08:30am 27.9 E 4 6 1012.5 - - - - - - - - -
24/08:00am 27.9 NNE 4 6 1012.5 - - - - - - - - -
24/07:30am 27.2 N 4 5 1012.2 - - - - - - - - -
24/07:00am 26.9 NNW 4 5 1011.9 - - - - - - - - -
24/06:30am 26.8 NW 6 9 1011.3 - - - - - - - - -
24/06:00am 26.7 NW 10 13 1010.7 - - - - - - - - -
24/05:30am 26.6 NW 10 12 1010.4 - - - - - - - - -
24/05:00am 26.5 NW 9 12 1010.2 - - - - - - - - -
24/04:30am 26.5 NW 9 11 1010.0 - - - - - - - - -
24/04:00am 26.7 NW 10 13 1009.7 - - - - - - - - -
24/03:30am 26.6 NW 9 12 1009.6 - - - - - - - - -
24/03:00am 26.5 NNW 8 10 1009.6 - - - - - - - - -
24/02:30am 26.6 NW 10 13 1009.5 - - - - - - - - -
24/02:00am 26.5 NNW 10 12 1009.8 - - - - - - - - -
24/01:30am 26.6 NW 11 13 1009.9 - - - - - - - - -
24/01:00am 25.9 N 5 7 1010.3 - - - - - - - - -
24/12:30am 25.9 N 6 8 1010.6 - - - - - - - - -
24/12:00am 26.2 NE 6 8 1011.4 - - - - - - - - -
 
Date/Time
WST
Temp

°C
Wind Pressure Rain
since 9am
mm
Weather Cloud Vis
km
Sea
Height
m
Swell
Dir
 
Speed
knots
Gust
knots
hPa Trend Height
m
Period
s
Dir
23/11:30pm 26.4 NE 7 9 1011.5 - - - - - - - - -
23/11:00pm 26.9 NNW 9 11 1011.3 - - - - - - - - -
23/10:30pm 27.0 N 9 11 1012.0 - - - - - - - - -
23/10:00pm 27.1 NNE 10 12 1012.4 - - - - - - - - -
23/09:30pm 27.0 N 9 11 1012.2 - - - - - - - - -
23/09:00pm 27.1 NNW 8 11 1012.0 - - - - - - - - -
23/08:30pm 27.0 NNW 11 13 1011.4 - - - - - - - - -
23/08:00pm 27.0 NW 10 13 1011.5 - - - - - - - - -
23/07:30pm 27.1 NNW 14 18 1011.0 - - - - - - - - -
23/07:00pm 27.1 NNW 16 20 1010.6 - - - - - - - - -
23/06:30pm 27.1 NNW 18 22 1010.1 - - - - - - - - -
23/06:00pm 27.2 NNW 19 24 1009.7 - - - - - - - - -
23/05:30pm 27.3 NNW 20 26 1009.2 - - - - - - - - -
23/05:00pm 27.3 NNW 21 26 1008.7 - - - - - - - - -
23/04:30pm 27.5 NNW 24 29 1008.3 - - - - - - - - -
23/04:00pm 27.7 NNW 22 27 1008.2 - - - - - - - - -
23/03:30pm 27.7 NNW 22 26 1008.5 - - - - - - - - -
23/03:00pm 27.7 NNW 22 26 1008.7 - - - - - - - - -
23/02:30pm 27.7 NNW 23 26 1008.9 - - - - - - - - -
23/02:00pm 28.1 NNW 21 25 1009.3 - - - - - - - - -
23/01:30pm 27.8 NNW 20 25 1009.5 - - - - - - - - -
23/01:00pm 28.0 NNW 19 24 1009.8 - - - - - - - - -
23/12:30pm 28.5 NNW 17 23 1010.2 - - - - - - - - -
23/12:00pm 28.3 NNW 18 23 1010.4 - - - - - - - - -
23/11:30am 28.2 NNW 16 21 1010.8 - - - - - - - - -
23/11:00am 28.3 N 13 18 1011.0 - - - - - - - - -
23/10:30am 28.7 NNW 13 16 1010.7 - - - - - - - - -
23/10:00am 28.9 NNW 15 18 1010.8 - - - - - - - - -
23/09:30am 28.8 NNW 15 19 1010.7 - - - - - - - - -
23/09:00am 28.3 N 15 19 1010.7 - - - - - - - - -
23/08:30am 27.4 N 18 22 1010.7 - - - - - - - - -
23/08:00am 27.1 N 18 22 1010.7 - - - - - - - - -
23/07:30am 26.7 N 16 20 1010.7 - - - - - - - - -
23/07:00am 26.3 NNE 10 13 1010.8 - - - - - - - - -

Other Formats:

Comma delimited format used in spreadsheet applications
http://www.bom.gov.au/fwo/IDW60701/IDW60701.95202.axf

JavaScript Object Notation format (JSON) in row-major order
http://www.bom.gov.au/fwo/IDW60701/IDW60701.95202.json